Kezdőlap
METAR-TAF:

METAR-TAF

Repülőterek :

Houston, Texas, Amerikai Egyesült Államok

földrajzi szélesség: 29-59-33N, földrajzi hosszúság: 095-21-50W, magasság: 29 m

Jelenlegi meteorológiai megfigyelések

A jelentés 56 perccel ezelõtt készült, 06:53 UTC
Szélcsend
Hőmérséklet 7°C
Páratartalom 49%
Légköri nyomás 1027 hPa
Látótávolság: 16.1 km
Szórványos felhőzet 25000 lábon

METAR: KIAH 240653Z COR 00000KT 10SM SCT250 07/M03 A3034 RMK AO2 SLP275 T00721028

Idő: 01:49 (07:49 UTC)

Előrejelzés

A jelentés 2 órával és 29 perccel ezelõtt készült, 05:20 UTC
Az előrejelzés 24-én 06 óra UTC és 25-én 12 óra UTC között érvényes
Különbözõ irányokból fújó szél 3 kt
Látótávolság: 10 km
Szakadozott felhőzet 25000 lábon
24-én 1500 órától UTC szerint
Észak-északkeleti szél 5 kt
Látótávolság: 10 km
Szórványos felhőzet 25000 lábon

TAF: KIAH 240520Z 2406/2512 VRB03KT P6SM BKN250 FM241500 03005KT P6SM SCT250

Meteorológiai megfigyelések és előrejelzések több, mint 4000 repülőtéren (METAR és TAF jelentéseket).

A térképen piros és sárga pontok jelzik az elérhető meteorológiai állomásokat.

Mozgassa az egeret a pont fölött, hogy megjelenjen az állomás neve.

Azután kattintson az időjárási megfigyelések és előrejelzések megtekintéséhez.

A térkép megváltoztatása: kattintson a fekete keresztel jelölt zöld gombra ráközelítéshez, a vonallal jelölt zöld gombra távolításhoz, vagy a zöld nyilakra a szomszédos térképek eléréséhez.


METAR-TAF: